Time;durP1;ratioP1;P1;durP2;ratioP2;P2;SDS_P1;SDS_P2;PMS_P1;PMS_P2;Temp;Humidity;BMP_temperature;BMP_pressure;BME280_temperature;BME280_humidity;BME280_pressure;Samples;Min_cycle;Max_cycle;Signal;HPM_P1;HPM_P2
2022/11/05 00:10:05;;;;;;;21.88;12.15;;;4.40;99.90;;;;;;5094077;28;20107;-51
2022/11/05 00:18:00;;;;;;;21.90;12.45;;;4.30;99.90;;;;;;5092232;28;20039;-47
2022/11/05 00:20:25;;;;;;;19.27;10.90;;;4.30;99.90;;;;;;5093466;28;20412;-50
2022/11/05 00:25:58;;;;;;;20.35;12.35;;;4.30;99.90;;;;;;5081829;28;20077;-51
2022/11/05 00:28:25;;;;;;;22.33;13.25;;;4.40;99.90;;;;;;5093290;28;20032;-46
2022/11/05 00:30:51;;;;;;;19.25;10.75;;;4.50;99.90;;;;;;5093382;28;20019;-52
2022/11/05 00:33:17;;;;;;;19.05;11.88;;;4.60;99.90;;;;;;5093156;28;20024;-49
2022/11/05 00:35:43;;;;;;;18.02;11.02;;;4.50;99.90;;;;;;5093429;28;20103;-52
2022/11/05 00:38:09;;;;;;;18.50;11.27;;;4.50;99.90;;;;;;5093367;28;20020;-47
2022/11/05 00:40:35;;;;;;;20.05;11.98;;;4.50;99.90;;;;;;5093105;28;20059;-52
2022/11/05 00:45:45;;;;;;;21.40;11.05;;;4.40;99.90;;;;;;5093218;28;20031;-47
2022/11/05 00:50:54;;;;;;;19.08;12.02;;;4.60;99.90;;;;;;5092879;28;20498;-49
2022/11/05 00:53:20;;;;;;;18.65;11.55;;;4.60;99.90;;;;;;5093021;28;20021;-49
2022/11/05 00:55:46;;;;;;;20.65;12.30;;;4.60;99.90;;;;;;5092871;28;20439;-49
2022/11/05 00:58:14;;;;;;;19.42;11.77;;;4.50;99.90;;;;;;5091844;28;20107;-50
2022/11/05 01:00:42;;;;;;;20.63;11.23;;;4.50;99.90;;;;;;5092717;28;20039;-50
2022/11/05 01:03:14;;;;;;;20.65;12.75;;;4.50;99.90;;;;;;5092782;28;20477;-52
2022/11/05 01:05:43;;;;;;;21.75;12.70;;;4.50;99.90;;;;;;5092600;28;20492;-49
2022/11/05 01:08:10;;;;;;;22.23;12.73;;;4.50;99.90;;;;;;5092748;28;20099;-52
2022/11/05 01:10:44;;;;;;;18.40;10.10;;;4.60;99.90;;;;;;5092570;28;20027;-56
2022/11/05 01:13:11;;;;;;;20.20;11.90;;;4.60;99.90;;;;;;5078892;28;20067;-54
2022/11/05 01:15:37;;;;;;;16.48;11.35;;;4.50;99.90;;;;;;5092654;28;20183;-54
2022/11/05 01:18:03;;;;;;;20.00;11.68;;;4.60;99.90;;;;;;5092293;28;20059;-46
2022/11/05 01:20:28;;;;;;;18.27;10.50;;;4.60;99.90;;;;;;5092372;28;20083;-47
2022/11/05 01:22:54;;;;;;;17.52;11.20;;;4.60;99.90;;;;;;5092342;28;20085;-46
2022/11/05 01:25:20;;;;;;;17.30;11.00;;;4.60;99.90;;;;;;5092300;28;20124;-47
2022/11/05 01:27:45;;;;;;;23.17;12.98;;;4.60;99.90;;;;;;5092417;28;20032;-48
2022/11/05 01:30:12;;;;;;;24.92;13.38;;;4.50;99.90;;;;;;5092457;28;20044;-49
2022/11/05 01:32:37;;;;;;;21.60;12.57;;;4.50;99.90;;;;;;5092313;28;20039;-46
2022/11/05 01:35:05;;;;;;;27.20;12.75;;;4.60;99.90;;;;;;5091741;28;20107;-51
2022/11/05 01:37:31;;;;;;;22.38;12.45;;;4.60;99.90;;;;;;5092131;28;20028;-51
2022/11/05 01:39:56;;;;;;;22.00;13.00;;;4.70;99.90;;;;;;5092219;28;20021;-46
2022/11/05 01:42:24;;;;;;;24.40;13.13;;;4.70;99.90;;;;;;5092009;28;20036;-49
2022/11/05 01:45:08;;;;;;;22.17;13.10;;;4.90;99.90;;;;;;5092271;28;20095;-53
2022/11/05 01:47:53;;;;;;;27.60;13.68;;;4.90;99.90;;;;;;5091890;28;20020;-47
2022/11/05 01:50:26;;;;;;;23.48;12.77;;;4.90;99.90;;;;;;5091990;28;20132;-48
2022/11/05 01:52:57;;;;;;;22.92;13.23;;;4.90;99.90;;;;;;5091868;28;20093;-46
2022/11/05 01:55:26;;;;;;;21.98;12.52;;;4.90;99.90;;;;;;5091872;28;20387;-48
2022/11/05 01:57:55;;;;;;;21.95;12.95;;;4.80;99.90;;;;;;5091976;28;20082;-48
2022/11/05 02:00:20;;;;;;;20.67;12.07;;;4.80;99.90;;;;;;5091787;28;20028;-50
2022/11/05 02:02:46;;;;;;;21.27;12.23;;;4.70;99.90;;;;;;5091439;28;20122;-50
2022/11/05 02:05:14;;;;;;;21.95;11.90;;;4.70;99.90;;;;;;5091815;28;20602;-49
2022/11/05 02:07:41;;;;;;;24.35;12.18;;;4.70;99.90;;;;;;5090276;28;20492;-46
2022/11/05 02:10:12;;;;;;;21.70;11.70;;;4.70;99.90;;;;;;5091823;28;20042;-48
2022/11/05 02:12:41;;;;;;;17.55;11.68;;;4.80;99.90;;;;;;5091652;28;20032;-46
2022/11/05 02:15:11;;;;;;;24.58;12.30;;;4.90;99.90;;;;;;5091578;28;20468;-49
2022/11/05 02:17:59;;;;;;;19.92;12.70;;;5.00;99.90;;;;;;5091701;28;20024;-51
2022/11/05 02:20:51;;;;;;;23.00;12.05;;;5.00;99.90;;;;;;5077428;28;20052;-47
2022/11/05 02:23:22;;;;;;;19.40;11.80;;;5.00;99.90;;;;;;5091231;28;20028;-49
2022/11/05 02:26:20;;;;;;;16.95;11.15;;;5.00;99.90;;;;;;5091550;28;20101;-46
2022/11/05 02:29:07;;;;;;;17.80;10.77;;;5.00;99.90;;;;;;5091233;28;20050;-51
2022/11/05 02:31:57;;;;;;;16.90;10.82;;;4.90;99.90;;;;;;5091148;28;20537;-52
2022/11/05 02:34:49;;;;;;;18.80;11.05;;;4.90;99.90;;;;;;5080239;28;20055;-55
2022/11/05 02:37:40;;;;;;;22.10;11.50;;;4.90;99.90;;;;;;5091047;28;20035;-47
2022/11/05 02:40:38;;;;;;;18.20;11.20;;;4.80;99.90;;;;;;5090880;28;20032;-51
2022/11/05 02:43:34;;;;;;;16.75;11.07;;;4.80;99.90;;;;;;5091130;28;20040;-51
2022/11/05 02:46:11;;;;;;;16.83;11.13;;;4.80;99.90;;;;;;5088885;28;20070;-51
2022/11/05 02:48:48;;;;;;;20.92;11.80;;;4.80;99.90;;;;;;5090840;28;20111;-47
2022/11/05 02:51:26;;;;;;;20.30;11.80;;;4.90;99.90;;;;;;5091181;28;20074;-46
2022/11/05 02:54:04;;;;;;;20.83;11.80;;;4.80;99.90;;;;;;5090865;28;20099;-50
2022/11/05 02:56:32;;;;;;;22.50;12.30;;;4.80;99.90;;;;;;5088494;28;20485;-47
2022/11/05 02:58:58;;;;;;;24.63;12.07;;;4.80;99.90;;;;;;5090679;28;20553;-49
2022/11/05 03:01:24;;;;;;;21.83;12.25;;;4.80;99.90;;;;;;5094460;28;20074;-50
2022/11/05 03:03:57;;;;;;;21.25;12.95;;;4.80;99.90;;;;;;5090781;28;20062;-49
2022/11/05 03:06:42;;;;;;;25.30;12.85;;;4.80;99.90;;;;;;5110125;28;20475;-47
2022/11/05 03:09:35;;;;;;;20.27;11.80;;;4.90;99.90;;;;;;5083550;28;20383;-53
2022/11/05 03:12:37;;;;;;;20.52;11.18;;;4.90;99.90;;;;;;5111220;28;20092;-46
2022/11/05 03:15:46;;;;;;;23.55;11.40;;;4.90;99.90;;;;;;5111107;28;20036;-46
2022/11/05 03:18:35;;;;;;;20.87;11.30;;;4.90;99.90;;;;;;5111099;28;20059;-50
2022/11/05 03:21:10;;;;;;;21.98;12.93;;;5.00;99.90;;;;;;5111026;28;20028;-49
2022/11/05 03:23:49;;;;;;;24.65;13.43;;;4.90;99.90;;;;;;5111141;28;20024;-51
2022/11/05 03:26:20;;;;;;;22.00;11.77;;;4.90;99.90;;;;;;5111044;28;20020;-50
2022/11/05 03:28:51;;;;;;;28.60;13.20;;;4.90;99.90;;;;;;5111234;28;20036;-48
2022/11/05 03:31:19;;;;;;;20.63;12.60;;;4.90;99.90;;;;;;5110788;28;20036;-50
2022/11/05 03:33:47;;;;;;;28.25;13.10;;;4.90;99.90;;;;;;5111000;28;20024;-52
2022/11/05 03:36:36;;;;;;;19.73;12.00;;;5.00;99.90;;;;;;5110751;28;20107;-47
2022/11/05 03:39:05;;;;;;;21.45;11.48;;;5.00;99.90;;;;;;5111020;28;20030;-49
2022/11/05 03:41:33;;;;;;;20.10;11.73;;;5.10;99.90;;;;;;5110925;28;20085;-47
2022/11/05 03:44:04;;;;;;;23.50;12.02;;;5.10;99.90;;;;;;5111003;28;20051;-52
2022/11/05 03:46:36;;;;;;;26.92;12.35;;;5.10;99.90;;;;;;5110698;28;20019;-47
2022/11/05 03:49:05;;;;;;;20.83;11.27;;;5.20;99.90;;;;;;5110895;28;20059;-51
2022/11/05 03:51:44;;;;;;;24.67;12.48;;;5.30;99.90;;;;;;5110688;28;20015;-49
2022/11/05 03:54:10;;;;;;;33.05;12.55;;;5.40;99.90;;;;;;5110812;28;20020;-50
2022/11/05 03:56:48;;;;;;;26.52;13.93;;;5.40;99.90;;;;;;5110577;28;20027;-52
2022/11/05 03:59:14;;;;;;;21.55;12.27;;;5.50;99.90;;;;;;5114449;28;20024;-50
2022/11/05 04:01:41;;;;;;;22.95;11.60;;;5.50;99.90;;;;;;5114268;27;20066;-48
2022/11/05 04:04:08;;;;;;;24.73;11.77;;;5.40;99.90;;;;;;5114391;28;20035;-49
2022/11/05 04:14:46;;;;;;;19.58;11.30;;;5.20;99.90;;;;;;5114471;28;20092;-49
2022/11/05 04:17:12;;;;;;;20.45;11.88;;;5.20;99.90;;;;;;5114064;28;20434;-52
2022/11/05 04:25:13;;;;;;;21.60;11.35;;;5.20;99.90;;;;;;5114097;28;20108;-53
2022/11/05 04:27:39;;;;;;;19.52;11.50;;;5.20;99.90;;;;;;5113942;28;20365;-48
2022/11/05 04:30:17;;;;;;;21.45;10.93;;;5.10;99.90;;;;;;5113854;28;20038;-48
2022/11/05 04:33:14;;;;;;;19.00;10.57;;;5.10;99.90;;;;;;5113764;28;20028;-47
2022/11/05 04:35:47;;;;;;;18.83;10.50;;;5.10;99.90;;;;;;5113608;28;20030;-49
2022/11/05 04:38:15;;;;;;;21.30;10.00;;;5.10;99.90;;;;;;5113647;28;20019;-50
2022/11/05 04:40:41;;;;;;;18.70;11.23;;;5.20;99.90;;;;;;5113486;28;20027;-47
2022/11/05 04:43:07;;;;;;;19.20;10.63;;;5.20;99.90;;;;;;5113561;28;20461;-48
2022/11/05 04:45:34;;;;;;;16.15;10.15;;;5.30;99.90;;;;;;5113294;28;20023;-48
2022/11/05 04:48:03;;;;;;;18.52;10.45;;;5.30;99.90;;;;;;5113476;28;20098;-51
2022/11/05 04:50:30;;;;;;;17.88;10.45;;;5.40;99.90;;;;;;5113598;28;20024;-51
2022/11/05 04:52:56;;;;;;;16.23;9.93;;;5.30;99.90;;;;;;5113476;28;20023;-47
2022/11/05 04:55:22;;;;;;;17.83;10.38;;;5.30;99.90;;;;;;5113477;28;20030;-46
2022/11/05 04:57:49;;;;;;;19.58;10.60;;;5.30;99.90;;;;;;5113328;27;20433;-48
2022/11/05 05:00:15;;;;;;;19.40;10.75;;;5.30;99.90;;;;;;5113257;28;20027;-51
2022/11/05 05:02:41;;;;;;;17.67;9.75;;;5.30;99.90;;;;;;5113099;28;20484;-50
2022/11/05 05:05:06;;;;;;;19.40;10.43;;;5.30;99.90;;;;;;5113112;28;20103;-49
2022/11/05 05:07:33;;;;;;;21.75;10.75;;;5.40;99.90;;;;;;5113231;28;20026;-47
2022/11/05 05:09:59;;;;;;;21.40;11.25;;;5.40;99.90;;;;;;5112270;28;20019;-48
2022/11/05 05:12:25;;;;;;;21.80;11.50;;;5.40;99.90;;;;;;5113047;28;20050;-48
2022/11/05 05:14:51;;;;;;;18.63;11.02;;;5.40;99.90;;;;;;5113259;28;20067;-48
2022/11/05 05:17:16;;;;;;;18.73;11.13;;;5.40;99.90;;;;;;5113086;28;20495;-46
2022/11/05 05:22:31;;;;;;;20.45;10.52;;;5.30;99.90;;;;;;5074567;28;20427;-49
2022/11/05 05:24:58;;;;;;;18.88;10.15;;;5.30;99.90;;;;;;5112891;28;20020;-50
2022/11/05 05:27:28;;;;;;;18.10;9.80;;;5.50;99.90;;;;;;5112879;28;20020;-50
2022/11/05 05:29:57;;;;;;;17.80;10.02;;;5.50;99.90;;;;;;5112738;28;20039;-47
2022/11/05 05:32:23;;;;;;;17.17;9.57;;;5.50;99.90;;;;;;5112542;28;20063;-52
2022/11/05 05:34:49;;;;;;;17.50;9.50;;;5.60;99.90;;;;;;5112729;28;20041;-55
2022/11/05 05:37:15;;;;;;;18.80;10.50;;;5.60;99.90;;;;;;5112306;28;20110;-54
2022/11/05 05:39:41;;;;;;;15.80;8.88;;;5.50;99.90;;;;;;5112557;28;20076;-49
2022/11/05 05:42:06;;;;;;;15.75;9.05;;;5.50;99.90;;;;;;5112225;28;20040;-52
2022/11/05 05:44:32;;;;;;;16.48;9.20;;;5.50;99.90;;;;;;5112516;28;20023;-49
2022/11/05 05:46:57;;;;;;;17.70;9.45;;;5.60;99.90;;;;;;5112411;28;20148;-51
2022/11/05 05:49:23;;;;;;;16.42;8.70;;;5.70;99.90;;;;;;5112173;28;20494;-51
2022/11/05 05:51:49;;;;;;;19.25;9.55;;;5.70;99.90;;;;;;5112360;28;20032;-54
2022/11/05 05:54:15;;;;;;;16.33;8.77;;;5.70;99.90;;;;;;5112045;28;20023;-46
2022/11/05 05:56:44;;;;;;;16.13;8.60;;;5.80;99.90;;;;;;5111216;28;20028;-50
2022/11/05 05:59:10;;;;;;;17.65;9.43;;;5.80;99.90;;;;;;5108248;28;20020;-54
2022/11/05 06:01:36;;;;;;;13.07;8.10;;;5.90;99.90;;;;;;5091640;28;20032;-46
2022/11/05 06:04:01;;;;;;;14.80;8.65;;;5.80;99.90;;;;;;5091526;28;20397;-46
2022/11/05 06:06:27;;;;;;;14.32;9.05;;;5.90;99.90;;;;;;5106301;28;20022;-51
2022/11/05 06:08:54;;;;;;;14.88;8.48;;;5.90;99.90;;;;;;5112156;28;20020;-51
2022/11/05 06:11:21;;;;;;;13.10;8.35;;;5.90;99.90;;;;;;5112134;28;20035;-54
2022/11/05 06:13:46;;;;;;;13.80;7.40;;;6.00;99.90;;;;;;5111756;28;20391;-51
2022/11/05 06:16:12;;;;;;;17.00;8.38;;;6.00;99.90;;;;;;5111781;28;20024;-49
2022/11/05 06:18:38;;;;;;;15.27;8.90;;;6.00;99.90;;;;;;5111523;28;20023;-48
2022/11/05 06:21:09;;;;;;;14.18;9.05;;;6.00;99.90;;;;;;5111653;28;20084;-48
2022/11/05 06:23:37;;;;;;;16.33;8.90;;;6.00;99.90;;;;;;5111857;28;20030;-47
2022/11/05 06:26:09;;;;;;;18.48;9.15;;;6.10;99.90;;;;;;5111905;28;20094;-52
2022/11/05 06:28:35;;;;;;;15.57;9.15;;;6.00;99.90;;;;;;5111473;28;20034;-49
2022/11/05 06:31:01;;;;;;;16.17;9.15;;;6.00;99.90;;;;;;5111661;28;20019;-48
2022/11/05 06:33:27;;;;;;;15.48;8.88;;;6.00;99.90;;;;;;5111608;28;20027;-49
2022/11/05 06:35:53;;;;;;;15.18;8.50;;;6.00;99.90;;;;;;5111277;28;20069;-46
2022/11/05 06:38:19;;;;;;;19.52;9.43;;;6.10;99.90;;;;;;5111509;28;20035;-47
2022/11/05 06:40:44;;;;;;;18.33;9.93;;;6.00;99.90;;;;;;5108208;28;20218;-50
2022/11/05 06:43:10;;;;;;;21.65;11.38;;;6.10;99.90;;;;;;5099985;28;20042;-47
2022/11/05 06:45:36;;;;;;;20.45;10.80;;;6.10;99.90;;;;;;5111401;28;20081;-47
2022/11/05 06:48:02;;;;;;;17.58;10.85;;;6.10;99.90;;;;;;5111242;28;20054;-49
2022/11/05 06:50:28;;;;;;;19.20;10.55;;;6.10;99.90;;;;;;5107303;28;20016;-51
2022/11/05 06:52:58;;;;;;;18.40;9.88;;;6.20;99.90;;;;;;5090859;28;20453;-48
2022/11/05 06:55:27;;;;;;;21.02;9.88;;;6.20;99.90;;;;;;5090708;28;20080;-50
2022/11/05 06:57:53;;;;;;;18.58;9.52;;;6.20;99.90;;;;;;5090956;28;20073;-50
2022/11/05 07:00:19;;;;;;;18.30;10.48;;;6.20;99.90;;;;;;5090637;28;20028;-49
2022/11/05 07:02:45;;;;;;;19.17;11.00;;;6.30;99.90;;;;;;5090619;28;20158;-49
2022/11/05 07:05:11;;;;;;;19.60;10.85;;;6.30;99.90;;;;;;5092977;28;20078;-47
2022/11/05 07:07:41;;;;;;;20.33;10.40;;;6.30;99.90;;;;;;5090742;28;20032;-49
2022/11/05 07:10:08;;;;;;;;;;;6.30;99.90;;;;;;5091152;28;20020;-47
2022/11/05 07:12:33;;;;;;;17.27;9.60;;;6.30;99.90;;;;;;5079620;28;19932;-51
2022/11/05 07:14:59;;;;;;;13.23;8.73;;;6.30;99.90;;;;;;5090603;28;20112;-53
2022/11/05 07:17:25;;;;;;;14.73;8.80;;;6.30;99.90;;;;;;5090598;28;20028;-50
2022/11/05 07:19:51;;;;;;;14.20;7.45;;;6.40;99.90;;;;;;5090437;28;20046;-53
2022/11/05 07:22:17;;;;;;;17.15;8.00;;;6.40;99.90;;;;;;5081612;28;20032;-56
2022/11/05 07:24:45;;;;;;;15.27;7.45;;;6.40;99.90;;;;;;5083211;28;20372;-51
2022/11/05 07:27:12;;;;;;;16.50;7.63;;;6.40;99.90;;;;;;5089078;28;20042;-56
2022/11/05 07:29:37;;;;;;;16.20;8.35;;;6.40;99.90;;;;;;5090370;28;20020;-52
2022/11/05 07:32:03;;;;;;;13.48;6.93;;;6.50;99.90;;;;;;5087673;28;20028;-51
2022/11/05 07:34:29;;;;;;;13.82;7.30;;;6.60;99.90;;;;;;5094088;28;20388;-53
2022/11/05 07:36:54;;;;;;;11.85;6.28;;;6.60;99.90;;;;;;5092138;28;20034;-49
2022/11/05 07:39:20;;;;;;;11.15;6.32;;;6.70;99.90;;;;;;5093476;28;20035;-51
2022/11/05 07:41:46;;;;;;;11.93;6.22;;;6.80;99.90;;;;;;5094387;28;20127;-53
2022/11/05 07:44:13;;;;;;;8.02;5.15;;;6.80;99.90;;;;;;5093844;28;20020;-50
2022/11/05 07:46:42;;;;;;;11.18;5.88;;;6.90;99.90;;;;;;5094521;28;20036;-52
2022/11/05 07:49:08;;;;;;;13.55;5.63;;;7.00;99.90;;;;;;5093414;28;20020;-49
2022/11/05 07:51:33;;;;;;;10.30;5.18;;;7.10;99.90;;;;;;5093845;28;20396;-52
2022/11/05 07:53:59;;;;;;;10.18;5.35;;;7.10;99.90;;;;;;5092990;28;20016;-48
2022/11/05 07:56:25;;;;;;;10.68;5.63;;;7.20;99.90;;;;;;5092869;28;20028;-46
2022/11/05 07:58:50;;;;;;;11.48;6.13;;;7.20;99.90;;;;;;5088359;28;20382;-47
2022/11/05 08:01:16;;;;;;;15.80;7.68;;;7.30;99.90;;;;;;5088839;28;20035;-47
2022/11/05 08:03:41;;;;;;;11.18;6.32;;;7.30;99.90;;;;;;5093693;28;20032;-52
2022/11/05 08:06:07;;;;;;;13.57;6.65;;;7.30;99.90;;;;;;5106131;28;20020;-53
2022/11/05 08:08:33;;;;;;;12.52;5.45;;;7.40;99.90;;;;;;5112960;28;20028;-48
2022/11/05 08:11:04;;;;;;;12.18;5.70;;;7.50;99.90;;;;;;5114328;28;20378;-52
2022/11/05 08:13:30;;;;;;;10.85;6.05;;;7.50;99.90;;;;;;5114327;28;20130;-46
2022/11/05 08:15:56;;;;;;;13.70;6.68;;;7.60;99.90;;;;;;5114367;28;20550;-48
2022/11/05 08:18:22;;;;;;;12.70;6.75;;;7.60;99.90;;;;;;5114172;28;20089;-54
2022/11/05 08:20:48;;;;;;;14.30;6.85;;;7.60;99.90;;;;;;5112470;28;20070;-49
2022/11/05 08:23:14;;;;;;;9.95;6.03;;;7.70;99.90;;;;;;5112058;28;20059;-47
2022/11/05 08:25:40;;;;;;;9.98;5.47;;;7.80;99.90;;;;;;5111617;28;20073;-49
2022/11/05 08:28:09;;;;;;;17.65;8.50;;;7.90;99.90;;;;;;5111994;28;20121;-47
2022/11/05 08:30:35;;;;;;;13.10;7.07;;;7.90;99.90;;;;;;5111938;28;20031;-54
2022/11/05 08:33:07;;;;;;;12.55;6.75;;;8.00;99.90;;;;;;5112030;28;20081;-53
2022/11/05 08:35:34;;;;;;;10.57;5.47;;;8.00;99.90;;;;;;5112209;28;20016;-49
2022/11/05 08:38:02;;;;;;;11.20;5.80;;;8.10;99.90;;;;;;5111852;28;20020;-47
2022/11/05 08:40:30;;;;;;;7.40;4.90;;;8.20;99.90;;;;;;5111360;28;20447;-46
2022/11/05 08:43:02;;;;;;;11.45;5.40;;;8.30;99.90;;;;;;5111807;28;20070;-52
2022/11/05 08:45:28;;;;;;;10.88;5.35;;;8.30;99.90;;;;;;5111057;28;20455;-52
2022/11/05 08:48:14;;;;;;;9.48;5.28;;;8.40;99.90;;;;;;5111646;28;20058;-52
2022/11/05 08:50:40;;;;;;;16.33;5.57;;;8.50;99.90;;;;;;5112104;28;20027;-46
2022/11/05 08:53:08;;;;;;;10.45;6.57;;;8.50;99.90;;;;;;5113341;28;20388;-51
2022/11/05 08:55:34;;;;;;;9.98;6.35;;;8.50;99.90;;;;;;5113137;28;20463;-51
2022/11/05 08:58:02;;;;;;;10.38;4.93;;;8.50;99.90;;;;;;5113261;28;20048;-51
2022/11/05 09:00:29;;;;;;;9.30;5.22;;;8.50;99.90;;;;;;5113247;28;20032;-52
2022/11/05 09:02:58;;;;;;;11.32;5.07;;;8.50;99.90;;;;;;5112969;28;20107;-47
2022/11/05 09:05:24;;;;;;;10.18;5.10;;;8.50;99.90;;;;;;5112982;28;20080;-50
2022/11/05 09:07:49;;;;;;;10.57;5.78;;;8.60;99.90;;;;;;5113118;28;20115;-50
2022/11/05 09:10:15;;;;;;;11.65;6.13;;;8.60;99.90;;;;;;5112936;28;20011;-46
2022/11/05 09:12:41;;;;;;;10.18;6.10;;;8.70;99.90;;;;;;5111862;28;20383;-46
2022/11/05 09:15:08;;;;;;;9.85;6.03;;;8.70;99.90;;;;;;5112976;28;20031;-52
2022/11/05 09:17:33;;;;;;;14.65;6.28;;;8.80;99.90;;;;;;5112910;28;20048;-47
2022/11/05 09:20:00;;;;;;;12.10;6.20;;;8.90;99.90;;;;;;5111568;28;20108;-49
2022/11/05 09:22:26;;;;;;;13.15;6.30;;;9.00;99.90;;;;;;5112719;28;20046;-48
2022/11/05 09:24:52;;;;;;;12.35;6.60;;;9.10;99.90;;;;;;5111487;28;20015;-47
2022/11/05 09:27:17;;;;;;;13.30;7.25;;;9.20;99.90;;;;;;5112499;28;20464;-54
2022/11/05 09:29:43;;;;;;;11.93;6.78;;;9.40;99.90;;;;;;5112783;28;20038;-53
2022/11/05 09:32:09;;;;;;;10.57;6.28;;;9.50;99.90;;;;;;5098031;28;20020;-48
2022/11/05 09:34:35;;;;;;;11.52;6.10;;;9.70;99.90;;;;;;5112581;28;20069;-47
2022/11/05 09:37:00;;;;;;;11.63;5.50;;;9.70;99.90;;;;;;5112327;28;20028;-49
2022/11/05 09:39:26;;;;;;;13.93;6.30;;;9.60;99.90;;;;;;5112151;28;20024;-47
2022/11/05 09:42:01;;;;;;;10.27;5.45;;;9.70;99.90;;;;;;5112400;28;20039;-48
2022/11/05 09:44:40;;;;;;;12.02;6.05;;;9.80;99.90;;;;;;5112353;28;20019;-46
2022/11/05 09:47:13;;;;;;;11.23;5.25;;;9.80;99.90;;;;;;5112415;28;20429;-50
2022/11/05 09:49:43;;;;;;;12.93;5.88;;;9.80;99.90;;;;;;5112392;27;20030;-49
2022/11/05 09:52:13;;;;;;;;;;;9.90;99.90;;;;;;5112578;28;20020;-48
2022/11/05 09:54:39;;;;;;;13.15;5.63;;;9.90;99.90;;;;;;5111680;28;19926;-48
2022/11/05 09:57:11;;;;;;;10.10;5.45;;;10.00;99.90;;;;;;5112128;28;20028;-46
2022/11/05 09:59:47;;;;;;;10.13;5.18;;;10.00;99.90;;;;;;5110604;28;20085;-46
2022/11/05 10:02:26;;;;;;;12.60;5.00;;;10.00;99.90;;;;;;5111835;28;20028;-56
2022/11/05 10:04:56;;;;;;;10.35;4.30;;;10.20;99.90;;;;;;5111860;28;20028;-48
2022/11/05 10:07:28;;;;;;;10.25;3.42;;;10.30;99.90;;;;;;5112054;28;20502;-50
2022/11/05 10:10:01;;;;;;;7.50;3.53;;;10.40;99.90;;;;;;5111712;28;20043;-55
2022/11/05 10:12:34;;;;;;;9.27;3.63;;;10.50;99.90;;;;;;5111931;28;20028;-46
2022/11/05 10:15:05;;;;;;;7.38;3.45;;;10.60;99.90;;;;;;5111735;28;20069;-52
2022/11/05 10:17:32;;;;;;;9.52;3.83;;;10.70;99.90;;;;;;5111914;28;20043;-49
2022/11/05 10:20:23;;;;;;;6.43;3.53;;;10.80;99.90;;;;;;5111581;28;20589;-49
2022/11/05 10:22:55;;;;;;;10.35;4.32;;;10.90;99.90;;;;;;5111492;28;20035;-47
2022/11/05 10:25:23;;;;;;;9.00;3.67;;;11.00;99.90;;;;;;5111623;28;20094;-51
2022/11/05 10:27:53;;;;;;;7.93;3.83;;;11.00;99.90;;;;;;5111744;28;20032;-48
2022/11/05 10:30:20;;;;;;;8.20;3.08;;;11.00;99.90;;;;;;5111436;28;20095;-52
2022/11/05 10:32:47;;;;;;;9.43;3.20;;;11.00;99.90;;;;;;5110433;28;20015;-52
2022/11/05 10:35:21;;;;;;;8.32;2.67;;;10.90;99.90;;;;;;5111585;28;20027;-51
2022/11/05 10:37:48;;;;;;;5.38;2.72;;;10.90;99.90;;;;;;5111749;28;20081;-54
2022/11/05 10:40:45;;;;;;;7.90;2.42;;;10.90;99.90;;;;;;5111272;28;20027;-48
2022/11/05 10:43:43;;;;;;;9.82;3.22;;;10.90;99.90;;;;;;5088953;28;20067;-47
2022/11/05 10:46:18;;;;;;;7.00;2.88;;;11.00;99.90;;;;;;5107429;28;20475;-46
2022/11/05 10:49:07;;;;;;;5.75;2.20;;;11.10;99.90;;;;;;5111283;28;20475;-48
2022/11/05 10:51:33;;;;;;;;;;;11.20;99.90;;;;;;5087214;28;20034;-52
2022/11/05 10:54:15;;;;;;;11.13;3.03;;;11.20;99.90;;;;;;5111217;28;20271;-54
2022/11/05 10:56:41;;;;;;;7.82;2.55;;;11.20;99.90;;;;;;5087342;28;20110;-52
2022/11/05 10:59:19;;;;;;;9.40;3.55;;;11.30;99.90;;;;;;5103408;28;20116;-47
2022/11/05 11:01:45;;;;;;;11.40;2.90;;;11.40;99.90;;;;;;5090640;28;20111;-55
2022/11/05 11:04:16;;;;;;;7.43;2.53;;;11.50;99.90;;;;;;5090738;28;20051;-51
2022/11/05 11:06:50;;;;;;;7.38;2.35;;;11.60;99.90;;;;;;5107585;28;20034;-56
2022/11/05 11:09:24;;;;;;;6.40;2.08;;;11.70;99.90;;;;;;5115480;28;20117;-52
2022/11/05 11:12:12;;;;;;;8.02;1.80;;;11.80;99.90;;;;;;5115091;28;20023;-52
2022/11/05 11:14:38;;;;;;;7.93;1.75;;;11.90;99.90;;;;;;5115010;28;20050;-52
2022/11/05 11:17:25;;;;;;;7.88;1.52;;;11.90;99.90;;;;;;5115107;28;20011;-49
2022/11/05 11:20:10;;;;;;;4.18;0.90;;;12.00;99.90;;;;;;5115070;28;20043;-46
2022/11/05 11:22:35;;;;;;;11.55;1.10;;;12.10;99.90;;;;;;5115082;28;20031;-55
2022/11/05 11:25:21;;;;;;;6.50;1.05;;;12.10;99.90;;;;;;5113402;28;20077;-47
2022/11/05 11:27:47;;;;;;;5.22;1.05;;;12.10;99.90;;;;;;5105394;28;20536;-49
2022/11/05 11:30:18;;;;;;;5.13;1.90;;;12.10;99.90;;;;;;5102095;28;20111;-49
2022/11/05 11:32:45;;;;;;;4.32;1.73;;;12.10;99.90;;;;;;5094550;28;20519;-49
2022/11/05 11:35:22;;;;;;;5.00;1.00;;;12.10;99.90;;;;;;5094358;28;20523;-50
2022/11/05 11:37:50;;;;;;;10.23;1.15;;;12.20;99.90;;;;;;5094160;28;20404;-51
2022/11/05 11:40:20;;;;;;;7.80;1.02;;;12.20;99.90;;;;;;5093595;28;20028;-51
2022/11/05 11:42:50;;;;;;;3.83;0.93;;;12.20;99.90;;;;;;5093642;28;20400;-51
2022/11/05 11:45:28;;;;;;;2.65;0.70;;;12.40;99.90;;;;;;5094199;28;20028;-47
2022/11/05 11:47:56;;;;;;;4.68;1.42;;;12.50;99.90;;;;;;5093663;28;20024;-48
2022/11/05 11:50:38;;;;;;;4.65;1.10;;;12.60;99.90;;;;;;5093520;28;20129;-46
2022/11/05 11:53:23;;;;;;;5.68;1.50;;;12.60;99.90;;;;;;5092021;28;20027;-48
2022/11/05 11:55:59;;;;;;;5.30;1.10;;;12.60;99.90;;;;;;5093330;28;20055;-46
2022/11/05 11:58:46;;;;;;;7.50;1.27;;;12.60;99.90;;;;;;5093433;28;20027;-46
2022/11/05 12:01:41;;;;;;;9.93;1.48;;;12.60;99.90;;;;;;5093287;28;20024;-47
2022/11/05 12:04:37;;;;;;;9.38;2.15;;;12.70;99.90;;;;;;5093195;28;20047;-51
2022/11/05 12:07:21;;;;;;;11.38;1.48;;;12.70;99.90;;;;;;5093120;28;20023;-46
2022/11/05 12:09:50;;;;;;;9.73;1.48;;;12.60;99.90;;;;;;5093292;28;20051;-46
2022/11/05 12:12:24;;;;;;;7.30;1.10;;;12.60;99.90;;;;;;5093199;28;20404;-49
2022/11/05 12:14:50;;;;;;;9.35;1.30;;;12.70;99.90;;;;;;5093207;28;20036;-48
2022/11/05 12:17:40;;;;;;;9.02;1.48;;;12.60;99.90;;;;;;5092977;28;20016;-47
2022/11/05 12:20:28;;;;;;;6.10;1.23;;;12.60;99.90;;;;;;5092767;28;20062;-51
2022/11/05 12:23:14;;;;;;;5.63;1.50;;;12.60;99.90;;;;;;5092641;28;20028;-47
2022/11/05 12:26:17;;;;;;;7.47;1.83;;;12.70;99.90;;;;;;5091507;28;20020;-49
2022/11/05 12:29:04;;;;;;;14.63;2.08;;;12.70;99.90;;;;;;5092998;28;20047;-51
2022/11/05 12:32:02;;;;;;;9.18;2.00;;;12.70;99.90;;;;;;5092548;28;20028;-46
2022/11/05 12:34:58;;;;;;;11.52;1.70;;;12.70;99.90;;;;;;5088625;28;20035;-46
2022/11/05 12:38:03;;;;;;;12.52;2.53;;;12.70;99.90;;;;;;5092505;28;20442;-56
2022/11/05 12:40:46;;;;;;;10.98;2.05;;;12.60;99.90;;;;;;5091853;28;20139;-46
2022/11/05 12:43:18;;;;;;;10.50;1.80;;;12.50;99.90;;;;;;5090264;28;20047;-49
2022/11/05 12:45:46;;;;;;;7.35;1.42;;;12.40;99.90;;;;;;5092270;28;20035;-47
2022/11/05 12:48:40;;;;;;;8.68;1.48;;;12.30;99.90;;;;;;5092341;28;20054;-46
2022/11/05 12:51:17;;;;;;;7.10;1.42;;;12.20;99.90;;;;;;5092353;28;20035;-47
2022/11/05 12:53:48;;;;;;;8.50;1.50;;;12.10;99.90;;;;;;5092337;28;20020;-47
2022/11/05 12:56:20;;;;;;;8.00;1.20;;;12.00;99.90;;;;;;5092012;28;20475;-55
2022/11/05 12:58:57;;;;;;;14.00;2.17;;;11.90;99.90;;;;;;5091983;28;20024;-46
2022/11/05 13:01:37;;;;;;;15.50;2.83;;;11.90;99.90;;;;;;5090491;28;20498;-48
2022/11/05 13:04:12;;;;;;;9.15;1.40;;;11.90;99.90;;;;;;5092025;28;20541;-47
2022/11/05 13:06:40;;;;;;;13.52;2.25;;;11.90;99.90;;;;;;5090795;28;20027;-53
2022/11/05 13:09:14;;;;;;;8.88;2.08;;;11.90;99.90;;;;;;5091928;28;20032;-46
2022/11/05 13:11:53;;;;;;;13.30;1.60;;;12.00;99.90;;;;;;5091854;28;20043;-51
2022/11/05 13:14:27;;;;;;;11.27;1.60;;;12.00;99.90;;;;;;5081527;28;20020;-51
2022/11/05 13:16:58;;;;;;;6.50;1.55;;;12.00;99.90;;;;;;5092039;28;20077;-47
2022/11/05 13:19:47;;;;;;;14.80;2.28;;;12.00;99.90;;;;;;5092141;28;20044;-51
2022/11/05 13:22:31;;;;;;;11.75;1.75;;;12.00;99.90;;;;;;5091766;28;20028;-48
2022/11/05 13:25:04;;;;;;;11.45;2.13;;;12.10;99.90;;;;;;5092130;28;20476;-50
2022/11/05 13:28:14;;;;;;;13.15;2.38;;;12.20;99.90;;;;;;5092165;28;20028;-49
2022/11/05 13:30:45;;;;;;;9.85;1.52;;;12.20;99.90;;;;;;5029000;28;20113;-49
2022/11/05 13:33:16;;;;;;;10.52;1.58;;;12.30;99.90;;;;;;5077682;28;20031;-49
2022/11/05 13:35:44;;;;;;;9.73;1.60;;;12.30;99.90;;;;;;5091949;28;20100;-50
2022/11/05 13:41:44;;;;;;;13.10;3.10;;;12.30;99.90;;;;;;5029072;28;20033;-47
2022/11/05 13:44:58;;;;;;;19.95;3.38;;;12.20;99.90;;;;;;5029343;28;20466;-47
2022/11/05 13:47:38;;;;;;;15.73;2.75;;;12.30;99.90;;;;;;5078401;28;20032;-48
2022/11/05 13:50:31;;;;;;;15.73;2.45;;;12.30;99.90;;;;;;5091737;28;20020;-48